createdAt,value
2019-01-28T00:00:11.947Z,74.61
2019-01-28T00:02:40.716Z,74.51
2019-01-28T00:05:09.324Z,74.73
2019-01-28T00:07:37.754Z,74.71
2019-01-28T00:10:08.003Z,74.57
2019-01-28T00:12:38.786Z,74.62
2019-01-28T00:15:08.443Z,74.27
2019-01-28T00:17:37.005Z,74.33
2019-01-28T00:20:07.112Z,74.24
2019-01-28T00:22:35.537Z,74.16
2019-01-28T00:25:04.618Z,73.84
2019-01-28T00:27:33.098Z,73.84
2019-01-28T00:30:01.571Z,73.82
2019-01-28T00:32:30.016Z,73.83
2019-01-28T00:34:58.432Z,73.69
2019-01-28T00:37:26.890Z,73.84
2019-01-28T00:39:55.305Z,73.87
2019-01-28T00:42:26.108Z,73.84
2019-01-28T00:44:54.527Z,73.96
2019-01-28T00:47:22.966Z,73.91
2019-01-28T00:49:51.374Z,73.82
2019-01-28T00:52:19.845Z,73.80
2019-01-28T00:54:48.294Z,73.71
2019-01-28T00:57:16.724Z,73.73
2019-01-28T00:59:45.204Z,73.43
2019-01-28T01:02:13.634Z,73.53
2019-01-28T01:04:42.117Z,73.66
2019-01-28T01:07:10.552Z,73.07
2019-01-28T01:09:38.968Z,72.77
2019-01-28T01:12:07.510Z,73.13
2019-01-28T01:14:35.934Z,72.94
2019-01-28T01:17:04.523Z,72.84
2019-01-28T01:19:32.940Z,72.94
2019-01-28T01:22:01.398Z,72.54
2019-01-28T01:24:29.843Z,72.40
2019-01-28T01:26:58.336Z,72.59
2019-01-28T01:29:26.758Z,72.59
2019-01-28T01:31:55.200Z,72.41
2019-01-28T01:34:23.614Z,72.38
2019-01-28T01:36:52.047Z,72.68
2019-01-28T01:39:20.458Z,72.69
2019-01-28T01:41:48.973Z,72.73
2019-01-28T01:44:17.400Z,72.65
2019-01-28T01:46:45.853Z,72.57
2019-01-28T01:49:14.281Z,72.68
2019-01-28T01:51:42.716Z,72.57
2019-01-28T01:54:11.137Z,72.15
2019-01-28T01:56:39.616Z,71.89
2019-01-28T01:59:08.064Z,71.86
2019-01-28T02:01:36.473Z,71.76
2019-01-28T02:04:05.195Z,71.75
2019-01-28T02:06:33.623Z,71.66
2019-01-28T02:09:02.144Z,71.03
2019-01-28T02:11:30.556Z,71.12
2019-01-28T02:13:58.988Z,71.12
2019-01-28T02:16:27.398Z,70.78
2019-01-28T02:18:55.825Z,71.03
2019-01-28T02:21:24.287Z,70.99
2019-01-28T02:23:52.710Z,70.88
2019-01-28T02:26:21.149Z,71.22
2019-01-28T02:28:49.591Z,71.33
2019-01-28T02:31:18.069Z,71.11
2019-01-28T02:33:46.511Z,70.91
2019-01-28T02:36:14.991Z,70.21
2019-01-28T02:38:43.416Z,70.21
2019-01-28T02:41:11.846Z,70.61
2019-01-28T02:43:40.292Z,70.61
2019-01-28T02:46:08.786Z,70.69
2019-01-28T02:48:37.247Z,70.94
2019-01-28T02:51:05.715Z,70.88
2019-01-28T02:53:34.137Z,70.73
2019-01-28T02:56:02.592Z,70.79
2019-01-28T02:58:31.026Z,70.68
2019-01-28T03:00:59.446Z,70.96
2019-01-28T03:03:27.949Z,70.97
2019-01-28T03:05:56.369Z,71.01
2019-01-28T03:08:24.850Z,71.21
2019-01-28T03:10:53.331Z,71.12
2019-01-28T03:13:21.758Z,70.99
2019-01-28T03:15:50.166Z,71.19
2019-01-28T03:18:18.663Z,71.20
2019-01-28T03:20:47.088Z,71.63
2019-01-28T03:23:16.426Z,71.57
2019-01-28T03:25:44.847Z,71.57
2019-01-28T03:28:13.284Z,71.75
2019-01-28T03:30:41.755Z,72.25
2019-01-28T03:33:10.123Z,72.22
2019-01-28T03:35:38.540Z,72.47
2019-01-28T03:38:06.951Z,72.23
2019-01-28T03:40:35.403Z,72.19
2019-01-28T03:43:03.899Z,72.01
2019-01-28T03:45:32.402Z,71.64
2019-01-28T03:48:00.850Z,71.56
2019-01-28T03:50:29.287Z,71.60
2019-01-28T03:52:57.866Z,71.62
2019-01-28T03:55:26.304Z,71.36
2019-01-28T03:57:54.845Z,71.07
2019-01-28T04:00:25.502Z,71.08
2019-01-28T04:02:53.964Z,71.41
2019-01-28T04:05:24.214Z,71.36
2019-01-28T04:07:52.625Z,71.44
2019-01-28T04:10:23.734Z,71.56
2019-01-28T04:12:52.400Z,71.91
2019-01-28T04:15:22.973Z,71.82
2019-01-28T04:17:52.033Z,71.94
2019-01-28T04:20:22.181Z,72.18
2019-01-28T04:22:50.596Z,72.19
2019-01-28T04:25:19.113Z,72.15
2019-01-28T04:27:47.516Z,72.37
2019-01-28T04:30:20.960Z,72.15
2019-01-28T04:32:49.434Z,72.09
2019-01-28T04:35:18.039Z,72.00
2019-01-28T04:37:46.629Z,72.21
2019-01-28T04:40:16.600Z,72.19
2019-01-28T04:42:45.266Z,72.03
2019-01-28T04:45:19.058Z,71.91
2019-01-28T04:47:48.567Z,71.64
2019-01-28T04:50:19.483Z,71.67
2019-01-28T04:52:48.164Z,71.65
2019-01-28T04:55:17.131Z,71.42
2019-01-28T04:57:45.819Z,71.36
2019-01-28T05:00:19.993Z,71.33
2019-01-28T05:02:48.556Z,71.28
2019-01-28T05:05:17.312Z,71.22
2019-01-28T05:07:45.839Z,71.24
2019-01-28T05:10:16.698Z,71.46
2019-01-28T05:12:45.350Z,71.57
2019-01-28T05:15:16.119Z,71.57
2019-01-28T05:17:44.538Z,71.56
2019-01-28T05:20:18.194Z,71.51
2019-01-28T05:22:46.660Z,71.28
2019-01-28T05:25:16.834Z,71.92
2019-01-28T05:27:45.491Z,71.92
2019-01-28T05:30:19.114Z,71.67
2019-01-28T05:32:47.741Z,71.67
2019-01-28T05:35:18.055Z,71.67
2019-01-28T05:37:46.594Z,71.45
2019-01-28T05:40:22.512Z,71.13
2019-01-28T05:42:51.042Z,70.95
2019-01-28T05:45:21.378Z,70.95
2019-01-28T05:47:49.935Z,71.03
2019-01-28T05:50:18.597Z,70.94
2019-01-28T05:52:47.242Z,70.94
2019-01-28T05:55:19.354Z,70.78
2019-01-28T05:57:48.573Z,71.52
2019-01-28T06:00:26.940Z,71.52
2019-01-28T06:02:55.360Z,71.25
2019-01-28T06:05:23.961Z,71.26
2019-01-28T06:07:52.388Z,71.27
2019-01-28T06:10:20.896Z,71.43
2019-01-28T06:12:49.364Z,71.59
2019-01-28T06:15:19.350Z,71.49
2019-01-28T06:17:47.837Z,71.21
2019-01-28T06:20:24.440Z,71.08
2019-01-28T06:22:53.317Z,71.22
2019-01-28T06:25:22.690Z,71.32
2019-01-28T06:27:51.310Z,71.15
2019-01-28T06:30:22.586Z,70.81
2019-01-28T06:32:51.311Z,70.51
2019-01-28T06:35:20.334Z,70.51
2019-01-28T06:37:48.820Z,70.41
2019-01-28T06:40:20.044Z,70.53
2019-01-28T06:42:48.605Z,70.14
2019-01-28T06:45:17.438Z,70.14
2019-01-28T06:47:46.854Z,70.19
2019-01-28T06:50:18.397Z,69.98
2019-01-28T06:52:46.991Z,70.19
2019-01-28T06:55:15.671Z,70.02
2019-01-28T06:57:44.234Z,69.98
2019-01-28T07:00:18.675Z,69.98
2019-01-28T07:02:47.117Z,70.11
2019-01-28T07:05:15.602Z,69.91
2019-01-28T07:07:44.031Z,70.20
2019-01-28T07:10:12.890Z,70.62
2019-01-28T07:12:41.389Z,70.62
2019-01-28T07:15:12.839Z,70.51
2019-01-28T07:17:41.276Z,70.69
2019-01-28T07:20:18.909Z,70.77
2019-01-28T07:22:47.436Z,70.61
2019-01-28T07:25:15.927Z,70.61
2019-01-28T07:27:44.600Z,70.69
2019-01-28T07:30:19.069Z,70.86
2019-01-28T07:32:47.509Z,70.63
2019-01-28T07:35:16.110Z,70.48
2019-01-28T07:37:44.634Z,70.28
2019-01-28T07:40:15.487Z,70.07
2019-01-28T07:42:43.946Z,70.07
2019-01-28T07:45:18.656Z,70.33
2019-01-28T07:47:47.323Z,70.21
2019-01-28T07:50:15.873Z,69.82
2019-01-28T07:52:44.401Z,69.82
2019-01-28T07:55:13.551Z,69.84
2019-01-28T07:57:42.362Z,69.97
2019-01-28T08:00:22.405Z,69.96
2019-01-28T08:02:50.894Z,70.10
2019-01-28T08:05:20.241Z,70.19
2019-01-28T08:07:48.678Z,70.00
2019-01-28T08:10:19.037Z,70.19
2019-01-28T08:12:48.199Z,70.19
2019-01-28T08:15:22.227Z,70.00
2019-01-28T08:17:50.676Z,70.00
2019-01-28T08:20:20.151Z,69.95
2019-01-28T08:22:48.912Z,69.90
2019-01-28T08:25:19.457Z,69.89
2019-01-28T08:27:48.162Z,70.51
2019-01-28T08:30:32.207Z,70.51
2019-01-28T08:33:02.723Z,69.80
2019-01-28T08:35:32.512Z,69.77
2019-01-28T08:38:00.934Z,69.82
2019-01-28T08:40:29.480Z,69.72
2019-01-28T08:42:57.980Z,69.72
2019-01-28T08:45:26.480Z,69.98
2019-01-28T08:47:54.897Z,70.50
2019-01-28T08:50:27.971Z,70.43
2019-01-28T08:52:56.466Z,70.18
2019-01-28T08:55:27.121Z,70.48
2019-01-28T08:57:55.892Z,70.65
2019-01-28T09:00:33.064Z,70.97
2019-01-28T09:03:01.538Z,71.02
2019-01-28T09:05:30.391Z,71.28
2019-01-28T09:07:59.158Z,71.45
2019-01-28T09:10:29.417Z,71.54
2019-01-28T09:12:57.920Z,72.13
2019-01-28T09:15:26.824Z,72.13
2019-01-28T09:17:55.578Z,72.15
2019-01-28T09:20:29.692Z,72.24
2019-01-28T09:22:58.108Z,72.23
2019-01-28T09:25:26.731Z,72.32
2019-01-28T09:27:55.166Z,72.45
2019-01-28T09:30:26.307Z,72.80
2019-01-28T09:32:54.785Z,72.76
2019-01-28T09:35:23.377Z,72.95
2019-01-28T09:37:52.157Z,73.04
2019-01-28T09:40:22.922Z,73.57
2019-01-28T09:42:51.785Z,73.29
2019-01-28T09:45:22.749Z,73.49
2019-01-28T09:47:51.438Z,73.47
2019-01-28T09:50:20.413Z,73.69
2019-01-28T09:52:50.393Z,73.38
2019-01-28T09:55:19.183Z,73.23
2019-01-28T09:57:47.889Z,73.22
